メインページ
METAR-TAF:

METAR-TAF

空港 :

エルマイラ / Corning, ニューヨーク, アメリカ合衆国

緯度: 42-09-23N, 経度: 076-54-10W, 海抜: 291m

現時点の気象観測

当レポートは42分前の10:53(UTC)に作成
南西の風 3kt
気温 2°C
湿度 100%
気圧 1002 hPa
視程: 0.8km

METAR: KELM 141053Z 22003KT 1/2SM R24/3000V3500FT FG VV003 02/02 A2959 RMK AO2 SLP025 T00220022

時間: 06:35 (11:35 UTC)

予報

当レポートは3時間0分前の08:35(UTC)に作成
予報は14日の 09時(UTC)から 15日の 06時(UTC)まで有効
の風 kt
視程: 1.2km
高度400ftの曇り
小雨, 靄
14日の 2000時(UTC)から
北西の風 10kt、最大15ktの突風を伴う
視程: 1.6km
高度400ftの曇り
小雨, 靄
15日の 0000時(UTC)から
西の風 15kt、最大25ktの突風を伴う
視程: 3.2km
高度700ftの曇り
小雨, 靄
15日の 0300時(UTC)から
西の風 20kt、最大30ktの突風を伴う
視程: 2.4km
高度1500ftの曇り
小雪, 靄

TAF: KELM 140835Z 1409/1506 00000KT 3/4SM -RA BR OVC004 FM142000 31010G15KT 1SM -RA BR OVC004 FM150000 27015G25KT 2SM -RA BR OVC007 FM150300 26020G30KT 1 1/2SM -SN BR OVC015

4,000以上の空港の気象観測と天気予報(METAR報とTAF報)

利用可能な観測所は地図上に黄色い丸と赤い丸で示す。

丸の上にカーソルを重ねると観測所名を参照できる。

次にクリックすると気象観測と天気予報を参照できる。

マップの切り替え:黒色「×」印の緑ボタンをクリックして拡大、「-」印の緑ボタンをクリックして縮小、緑色の三角印をクリックして隣りの地図に切り替え


METAR-TAF: